Time,TemperatureF,DewpointF,PressureIn,WindDirection,WindDirectionDegrees,WindSpeedMPH,WindSpeedGustMPH,Humidity,HourlyPrecipIn,Conditions,Clouds,dailyrainin,SoftwareType,DateUTC
2013-01-22 00:02:00,32.0,26.0,30.41,East,90,0.0,0.0,77,0.00,,,0.00,,2013-01-22 08:02:00,
2013-01-22 00:11:00,32.0,26.0,30.41,East,90,0.0,0.0,77,0.00,,,0.00,,2013-01-22 08:11:00,
2013-01-22 00:22:00,31.0,25.0,30.41,WSW,247,0.0,0.0,77,0.00,,,0.00,,2013-01-22 08:22:00,
2013-01-22 00:32:00,31.0,25.0,30.41,East,90,0.0,1.0,78,0.00,,,0.00,,2013-01-22 08:32:00,
2013-01-22 00:42:00,31.0,25.0,30.41,East,90,0.0,1.0,78,0.00,,,0.00,,2013-01-22 08:42:00,
2013-01-22 00:52:00,30.0,24.0,30.40,ESE,112,0.0,0.0,78,0.00,,,0.00,,2013-01-22 08:52:00,
2013-01-22 01:02:00,30.0,24.0,30.40,WNW,292,0.0,0.0,79,0.00,,,0.00,,2013-01-22 09:02:00,
2013-01-22 01:11:00,30.0,24.0,30.40,WNW,292,0.0,0.0,79,0.00,,,0.00,,2013-01-22 09:11:00,
2013-01-22 01:22:00,31.0,25.0,30.41,ESE,112,0.0,1.0,79,0.00,,,0.00,,2013-01-22 09:22:00,
2013-01-22 01:32:00,32.0,26.0,30.40,ESE,112,0.0,0.0,78,0.00,,,0.00,,2013-01-22 09:32:00,
2013-01-22 01:42:00,32.0,26.0,30.40,ESE,112,0.0,0.0,78,0.00,,,0.00,,2013-01-22 09:42:00,
2013-01-22 01:52:00,32.0,26.0,30.40,ESE,112,0.0,0.0,78,0.00,,,0.00,,2013-01-22 09:52:00,
2013-01-22 02:02:00,32.0,26.0,30.41,ENE,67,0.0,0.0,77,0.00,,,0.00,,2013-01-22 10:02:00,
2013-01-22 02:11:00,32.0,26.0,30.41,ENE,67,0.0,0.0,77,0.00,,,0.00,,2013-01-22 10:11:00,
2013-01-22 02:22:00,32.0,26.0,30.41,ENE,67,0.0,0.0,77,0.00,,,0.00,,2013-01-22 10:22:00,
2013-01-22 02:32:00,32.0,25.0,30.39,East,90,2.0,3.0,76,0.00,,,0.00,,2013-01-22 10:32:00,
2013-01-22 02:42:00,32.0,25.0,30.39,East,90,2.0,3.0,76,0.00,,,0.00,,2013-01-22 10:42:00,
2013-01-22 02:52:00,32.0,25.0,30.39,East,90,2.0,3.0,76,0.00,,,0.00,,2013-01-22 10:52:00,
2013-01-22 03:02:00,33.0,26.0,30.40,East,90,0.0,0.0,76,0.00,,,0.00,,2013-01-22 11:02:00,
2013-01-22 03:11:00,33.0,26.0,30.40,East,90,0.0,0.0,76,0.00,,,0.00,,2013-01-22 11:11:00,
2013-01-22 03:22:00,33.0,26.0,30.40,East,90,0.0,0.0,76,0.00,,,0.00,,2013-01-22 11:22:00,
2013-01-22 03:32:00,32.0,25.0,30.41,SSE,157,0.0,3.0,76,0.00,,,0.00,,2013-01-22 11:32:00,
2013-01-22 03:42:00,32.0,25.0,30.41,SSE,157,0.0,3.0,76,0.00,,,0.00,,2013-01-22 11:42:00,
2013-01-22 03:53:00,32.0,25.0,30.40,ENE,67,0.0,0.0,76,0.00,,,0.00,,2013-01-22 11:53:00,
2013-01-22 04:02:00,32.0,25.0,30.40,North,0,1.0,3.0,76,0.00,,,0.00,,2013-01-22 12:02:00,
2013-01-22 04:12:00,32.0,25.0,30.40,North,0,1.0,3.0,76,0.00,,,0.00,,2013-01-22 12:12:00,
2013-01-22 04:22:00,32.0,25.0,30.39,SE,135,3.0,3.0,76,0.00,,,0.00,,2013-01-22 12:22:00,
2013-01-22 04:32:00,32.0,25.0,30.39,SE,135,3.0,3.0,76,0.00,,,0.00,,2013-01-22 12:32:00,
2013-01-22 04:42:00,32.0,25.0,30.39,East,90,0.0,3.0,76,0.00,,,0.00,,2013-01-22 12:42:00,
2013-01-22 04:53:00,32.0,26.0,30.39,NNE,22,0.0,0.0,77,0.00,,,0.00,,2013-01-22 12:53:00,
2013-01-22 05:02:00,31.0,25.0,30.38,West,270,1.0,2.0,77,0.00,,,0.00,,2013-01-22 13:02:00,
2013-01-22 05:12:00,31.0,25.0,30.38,West,270,1.0,2.0,77,0.00,,,0.00,,2013-01-22 13:12:00,
2013-01-22 05:22:00,31.0,25.0,30.38,ESE,112,0.0,0.0,77,0.00,,,0.00,,2013-01-22 13:22:00,
2013-01-22 05:32:00,31.0,25.0,30.38,South,180,0.0,0.0,78,0.00,,,0.00,,2013-01-22 13:32:00,
2013-01-22 05:42:00,31.0,25.0,30.38,South,180,0.0,0.0,78,0.00,,,0.00,,2013-01-22 13:42:00,
2013-01-22 05:53:00,31.0,25.0,30.37,South,180,0.0,0.0,77,0.00,,,0.00,,2013-01-22 13:53:00,
2013-01-22 06:02:00,31.0,25.0,30.37,ESE,112,0.0,0.0,77,0.00,,,0.00,,2013-01-22 14:02:00,
2013-01-22 06:12:00,31.0,25.0,30.37,ESE,112,0.0,0.0,77,0.00,,,0.00,,2013-01-22 14:12:00,
2013-01-22 06:22:00,30.0,24.0,30.37,SW,225,0.0,0.0,78,0.00,,,0.00,,2013-01-22 14:22:00,
2013-01-22 06:33:00,30.0,24.0,30.38,ESE,112,1.0,1.0,78,0.00,,,0.00,,2013-01-22 14:33:00,
2013-01-22 06:43:00,30.0,24.0,30.38,ESE,112,1.0,1.0,78,0.00,,,0.00,,2013-01-22 14:43:00,
2013-01-22 06:53:00,31.0,25.0,30.37,NE,45,3.0,3.0,78,0.00,,,0.00,,2013-01-22 14:53:00,
2013-01-22 07:02:00,31.0,25.0,30.37,ESE,112,0.0,3.0,78,0.00,,,0.00,,2013-01-22 15:02:00,
2013-01-22 07:12:00,31.0,25.0,30.37,ESE,112,0.0,3.0,78,0.00,,,0.00,,2013-01-22 15:12:00,
2013-01-22 07:23:00,31.0,25.0,30.36,West,270,0.0,0.0,78,0.00,,,0.00,,2013-01-22 15:23:00,
2013-01-22 07:33:00,31.0,25.0,30.36,SE,135,0.0,0.0,78,0.00,,,0.00,,2013-01-22 15:33:00,
2013-01-22 07:42:00,31.0,25.0,30.36,SE,135,0.0,0.0,78,0.00,,,0.00,,2013-01-22 15:42:00,
2013-01-22 07:53:00,31.0,25.0,30.35,WNW,292,0.0,0.0,78,0.00,,,0.00,,2013-01-22 15:53:00,
2013-01-22 08:03:00,31.0,25.0,30.35,NE,45,0.0,0.0,78,0.00,,,0.00,,2013-01-22 16:03:00,
2013-01-22 08:12:00,31.0,25.0,30.35,NE,45,0.0,0.0,78,0.00,,,0.00,,2013-01-22 16:12:00,
2013-01-22 08:22:00,31.0,25.0,30.34,NE,45,0.0,1.0,78,0.00,,,0.00,,2013-01-22 16:22:00,
2013-01-22 08:32:00,31.0,25.0,30.34,NNE,22,0.0,1.0,77,0.00,,,0.00,,2013-01-22 16:32:00,
2013-01-22 08:42:00,31.0,25.0,30.34,NNE,22,0.0,1.0,77,0.00,,,0.00,,2013-01-22 16:42:00,
2013-01-22 08:53:00,32.0,25.0,30.35,ENE,67,0.0,0.0,76,0.00,,,0.00,,2013-01-22 16:53:00,
2013-01-22 09:02:00,32.0,25.0,30.34,ESE,112,1.0,3.0,76,0.00,,,0.00,,2013-01-22 17:02:00,
2013-01-22 09:22:00,32.0,25.0,30.35,ENE,67,3.0,3.0,75,0.00,,,0.00,,2013-01-22 17:22:00,
2013-01-22 09:33:00,33.0,26.0,30.35,SSE,157,0.0,0.0,74,0.00,,,0.00,,2013-01-22 17:33:00,
2013-01-22 09:53:00,34.0,26.0,30.35,NNE,22,2.0,4.0,73,0.00,,,0.00,,2013-01-22 17:53:00,
2013-01-22 10:02:00,35.0,27.0,30.36,ENE,67,1.0,7.0,71,0.00,,,0.00,,2013-01-22 18:02:00,
2013-01-22 10:33:00,36.0,26.0,30.36,ESE,112,1.0,3.0,68,0.00,,,0.00,,2013-01-22 18:33:00,
2013-01-22 10:53:00,38.0,28.0,30.36,ESE,112,7.0,7.0,66,0.00,,,0.00,,2013-01-22 18:53:00,
2013-01-22 11:02:00,38.0,27.0,30.35,NE,45,1.0,7.0,65,0.00,,,0.00,,2013-01-22 19:02:00,
2013-01-22 11:22:00,39.0,28.0,30.35,ESE,112,1.0,3.0,64,0.00,,,0.00,,2013-01-22 19:22:00,
2013-01-22 11:32:00,39.0,27.0,30.35,SW,225,1.0,3.0,63,0.00,,,0.00,,2013-01-22 19:32:00,
2013-01-22 11:53:00,40.0,28.0,30.35,SSE,157,1.0,3.0,63,0.00,,,0.00,,2013-01-22 19:53:00,
2013-01-22 12:03:00,40.0,28.0,30.33,SSE,157,1.0,1.0,61,0.00,,,0.00,,2013-01-22 20:03:00,
2013-01-22 12:22:00,41.0,29.0,30.33,East,90,1.0,1.0,61,0.00,,,0.00,,2013-01-22 20:22:00,
2013-01-22 12:33:00,42.0,28.0,30.32,ENE,67,1.0,3.0,58,0.00,,,0.00,,2013-01-22 20:33:00,
2013-01-22 12:53:00,42.0,28.0,30.31,SSE,157,3.0,4.0,58,0.00,,,0.00,,2013-01-22 20:53:00,
2013-01-22 13:03:00,40.0,27.0,30.30,ESE,112,2.0,4.0,59,0.00,,,0.00,,2013-01-22 21:03:00,
2013-01-22 13:12:00,40.0,27.0,30.30,ESE,112,2.0,4.0,59,0.00,,,0.00,,2013-01-22 21:12:00,
2013-01-22 13:22:00,40.0,27.0,30.29,ESE,112,4.0,6.0,59,0.00,,,0.00,,2013-01-22 21:22:00,
2013-01-22 13:33:00,40.0,27.0,30.29,SE,135,6.0,6.0,59,0.00,,,0.00,,2013-01-22 21:33:00,
2013-01-22 13:43:00,40.0,27.0,30.29,SE,135,6.0,6.0,59,0.00,,,0.00,,2013-01-22 21:43:00,
2013-01-22 13:52:00,41.0,28.0,30.29,ENE,67,1.0,1.0,59,0.00,,,0.00,,2013-01-22 21:52:00,
2013-01-22 14:02:00,42.0,28.0,30.28,ENE,67,9.0,9.0,58,0.00,,,0.00,,2013-01-22 22:02:00,
2013-01-22 14:12:00,42.0,28.0,30.28,ENE,67,9.0,9.0,58,0.00,,,0.00,,2013-01-22 22:12:00,
2013-01-22 14:22:00,42.0,28.0,30.27,SSE,157,2.0,9.0,57,0.00,,,0.00,,2013-01-22 22:22:00,
2013-01-22 14:32:00,42.0,28.0,30.27,SSE,157,2.0,9.0,57,0.00,,,0.00,,2013-01-22 22:32:00,
2013-01-22 14:42:00,42.0,28.0,30.27,ESE,112,2.0,2.0,57,0.00,,,0.00,,2013-01-22 22:42:00,
2013-01-22 14:52:00,43.0,28.0,30.27,NE,45,3.0,6.0,56,0.00,,,0.00,,2013-01-22 22:52:00,
2013-01-22 15:02:00,42.0,27.0,30.26,SSE,157,1.0,6.0,56,0.00,,,0.00,,2013-01-22 23:02:00,
2013-01-22 15:12:00,42.0,27.0,30.26,SSE,157,1.0,6.0,56,0.00,,,0.00,,2013-01-22 23:12:00,
2013-01-22 15:22:00,41.0,27.0,30.26,NE,45,4.0,5.0,56,0.00,,,0.00,,2013-01-22 23:22:00,
2013-01-22 15:33:00,41.0,27.0,30.26,South,180,5.0,6.0,57,0.00,,,0.00,,2013-01-22 23:33:00,
2013-01-22 15:42:00,41.0,27.0,30.26,South,180,5.0,6.0,57,0.00,,,0.00,,2013-01-22 23:42:00,
2013-01-22 15:52:00,40.0,26.0,30.26,SSE,157,1.0,6.0,58,0.00,,,0.00,,2013-01-22 23:52:00,
2013-01-22 16:02:00,40.0,26.0,30.25,ESE,112,3.0,6.0,58,0.00,,,0.00,,2013-01-23 00:02:00,
2013-01-22 16:12:00,40.0,26.0,30.25,ESE,112,3.0,6.0,58,0.00,,,0.00,,2013-01-23 00:12:00,
2013-01-22 16:22:00,39.0,26.0,30.25,NE,45,4.0,4.0,59,0.00,,,0.00,,2013-01-23 00:22:00,
2013-01-22 16:33:00,39.0,26.0,30.24,WNW,292,0.0,0.0,59,0.00,,,0.00,,2013-01-23 00:33:00,
2013-01-22 16:42:00,39.0,26.0,30.24,WNW,292,0.0,0.0,59,0.00,,,0.00,,2013-01-23 00:42:00,
2013-01-22 16:52:00,38.0,26.0,30.24,SE,135,0.0,0.0,61,0.00,,,0.00,,2013-01-23 00:52:00,
2013-01-22 17:13:00,38.0,26.0,30.24,East,90,1.0,1.0,62,0.00,,,0.00,,2013-01-23 01:13:00,
2013-01-22 17:22:00,37.0,26.0,30.24,North,0,0.0,0.0,63,0.00,,,0.00,,2013-01-23 01:22:00,
2013-01-22 17:32:00,36.0,25.0,30.23,SE,135,0.0,3.0,63,0.00,,,0.00,,2013-01-23 01:32:00,
2013-01-22 17:42:00,36.0,25.0,30.23,SE,135,0.0,3.0,63,0.00,,,0.00,,2013-01-23 01:42:00,
2013-01-22 17:53:00,36.0,25.0,30.22,SE,135,1.0,1.0,64,0.00,,,0.00,,2013-01-23 01:53:00,
2013-01-22 18:02:00,36.0,25.0,30.22,SE,135,0.0,0.0,65,0.00,,,0.00,,2013-01-23 02:02:00,
2013-01-22 18:12:00,36.0,25.0,30.22,SE,135,0.0,0.0,65,0.00,,,0.00,,2013-01-23 02:12:00,
2013-01-22 18:22:00,35.0,24.0,30.22,East,90,1.0,8.0,65,0.00,,,0.00,,2013-01-23 02:22:00,
2013-01-22 18:32:00,35.0,25.0,30.22,SE,135,1.0,4.0,66,0.00,,,0.00,,2013-01-23 02:32:00,
2013-01-22 18:42:00,35.0,25.0,30.22,SE,135,1.0,4.0,66,0.00,,,0.00,,2013-01-23 02:42:00,
2013-01-22 18:53:00,35.0,25.0,30.21,SSE,157,0.0,0.0,66,0.00,,,0.00,,2013-01-23 02:53:00,
2013-01-22 19:02:00,35.0,25.0,30.22,South,180,3.0,3.0,66,0.00,,,0.00,,2013-01-23 03:02:00,
2013-01-22 19:12:00,35.0,25.0,30.22,South,180,3.0,3.0,66,0.00,,,0.00,,2013-01-23 03:12:00,
2013-01-22 19:22:00,35.0,25.0,30.21,ESE,112,0.0,1.0,67,0.00,,,0.00,,2013-01-23 03:22:00,
2013-01-22 19:32:00,35.0,25.0,30.22,ENE,67,4.0,4.0,67,0.00,,,0.00,,2013-01-23 03:32:00,
2013-01-22 19:42:00,35.0,25.0,30.22,ENE,67,4.0,4.0,67,0.00,,,0.00,,2013-01-23 03:42:00,
2013-01-22 19:53:00,34.0,25.0,30.22,ESE,112,1.0,3.0,68,0.00,,,0.00,,2013-01-23 03:53:00,
2013-01-22 20:02:00,34.0,25.0,30.22,ENE,67,4.0,4.0,68,0.00,,,0.00,,2013-01-23 04:02:00,
2013-01-22 20:12:00,34.0,25.0,30.22,ENE,67,4.0,4.0,68,0.00,,,0.00,,2013-01-23 04:12:00,
2013-01-22 20:22:00,34.0,25.0,30.21,SSE,157,3.0,4.0,69,0.00,,,0.00,,2013-01-23 04:22:00,
2013-01-22 20:32:00,34.0,25.0,30.20,SE,135,5.0,5.0,69,0.00,,,0.00,,2013-01-23 04:32:00,
2013-01-22 20:42:00,34.0,25.0,30.20,SE,135,5.0,5.0,69,0.00,,,0.00,,2013-01-23 04:42:00,
2013-01-22 20:53:00,34.0,25.0,30.20,SE,135,3.0,5.0,68,0.00,,,0.00,,2013-01-23 04:53:00,
2013-01-22 21:03:00,34.0,25.0,30.20,ENE,67,3.0,3.0,69,0.00,,,0.00,,2013-01-23 05:03:00,
2013-01-22 21:12:00,34.0,25.0,30.20,ENE,67,3.0,3.0,69,0.00,,,0.00,,2013-01-23 05:12:00,
2013-01-22 21:22:00,34.0,25.0,30.19,East,90,0.0,3.0,69,0.00,,,0.00,,2013-01-23 05:22:00,
2013-01-22 21:32:00,34.0,25.0,30.19,SSE,157,1.0,3.0,69,0.00,,,0.00,,2013-01-23 05:32:00,
2013-01-22 21:42:00,34.0,25.0,30.19,SSE,157,1.0,3.0,69,0.00,,,0.00,,2013-01-23 05:42:00,
2013-01-22 21:53:00,34.0,25.0,30.19,South,180,3.0,3.0,69,0.00,,,0.00,,2013-01-23 05:53:00,
2013-01-22 22:02:00,34.0,25.0,30.18,SSE,157,2.0,2.0,69,0.00,,,0.00,,2013-01-23 06:02:00,
2013-01-22 22:12:00,34.0,25.0,30.18,SSE,157,2.0,2.0,69,0.00,,,0.00,,2013-01-23 06:12:00,
2013-01-22 22:22:00,34.0,25.0,30.19,ENE,67,3.0,4.0,69,0.00,,,0.00,,2013-01-23 06:22:00,
2013-01-22 22:32:00,34.0,25.0,30.19,SE,135,2.0,4.0,69,0.00,,,0.00,,2013-01-23 06:32:00,
2013-01-22 22:42:00,34.0,25.0,30.19,SE,135,2.0,4.0,69,0.00,,,0.00,,2013-01-23 06:42:00,
2013-01-22 22:52:00,35.0,26.0,30.19,SE,135,0.0,0.0,68,0.00,,,0.00,,2013-01-23 06:52:00,
2013-01-22 23:02:00,35.0,26.0,30.20,SSE,157,0.0,3.0,68,0.00,,,0.00,,2013-01-23 07:02:00,
2013-01-22 23:12:00,35.0,26.0,30.20,SSE,157,0.0,3.0,68,0.00,,,0.00,,2013-01-23 07:12:00,
2013-01-22 23:22:00,35.0,26.0,30.20,SW,225,0.0,1.0,68,0.00,,,0.00,,2013-01-23 07:22:00,
2013-01-22 23:32:00,35.0,26.0,30.19,WSW,247,0.0,0.0,68,0.00,,,0.00,,2013-01-23 07:32:00,
2013-01-22 23:42:00,35.0,26.0,30.19,WSW,247,0.0,0.0,68,0.00,,,0.00,,2013-01-23 07:42:00,
2013-01-22 23:53:00,35.0,25.0,30.22,ESE,112,0.0,1.0,67,0.00,,,0.00,,2013-01-23 07:53:00,